createdAt,value
2023-01-21T00:04:22.214Z,1.10
2023-01-21T00:09:25.951Z,1.00
2023-01-21T00:14:29.942Z,1.00
2023-01-21T00:19:35.008Z,1.00
2023-01-21T00:24:38.707Z,0.90
2023-01-21T00:29:42.447Z,0.90
2023-01-21T00:34:47.732Z,0.90
2023-01-21T00:39:51.365Z,0.90
2023-01-21T00:44:55.130Z,0.90
2023-01-21T00:50:00.182Z,0.90
2023-01-21T00:55:03.950Z,0.90
2023-01-21T01:00:11.125Z,0.80
2023-01-21T01:05:16.613Z,0.80
2023-01-21T01:10:20.365Z,0.80
2023-01-21T01:15:24.000Z,0.80
2023-01-21T01:20:29.058Z,0.80
2023-01-21T01:25:34.633Z,0.80
2023-01-21T01:30:38.406Z,0.80
2023-01-21T01:35:47.100Z,0.80
2023-01-21T01:40:53.184Z,0.70
2023-01-21T01:45:56.961Z,0.70
2023-01-21T01:51:07.443Z,0.70
2023-01-21T01:56:11.263Z,0.70
2023-01-21T02:01:15.148Z,0.70
2023-01-21T02:06:20.546Z,0.60
2023-01-21T02:11:24.273Z,0.60
2023-01-21T02:16:43.495Z,0.60
2023-01-21T02:22:02.363Z,0.60
2023-01-21T02:27:48.054Z,0.60
2023-01-21T02:33:31.135Z,0.60
2023-01-21T02:38:45.681Z,0.60
2023-01-21T02:43:55.567Z,0.60
2023-01-21T02:49:05.860Z,0.50
2023-01-21T02:54:18.199Z,0.50
2023-01-21T02:59:21.987Z,0.50
2023-01-21T03:04:41.550Z,0.50
2023-01-21T03:09:46.739Z,0.40
2023-01-21T03:15:14.630Z,0.50
2023-01-21T03:20:23.411Z,0.50
2023-01-21T03:25:30.686Z,0.40
2023-01-21T03:30:36.145Z,0.40
2023-01-21T03:35:43.108Z,0.40
2023-01-21T03:40:49.528Z,0.40
2023-01-21T03:46:01.257Z,0.30
2023-01-21T03:51:11.025Z,0.30
2023-01-21T03:56:16.142Z,0.30
2023-01-21T04:01:20.019Z,0.30
2023-01-21T04:06:24.618Z,0.30
2023-01-21T04:11:29.653Z,0.30
2023-01-21T04:16:33.492Z,0.30
2023-01-21T04:21:37.207Z,0.30
2023-01-21T04:26:42.247Z,0.30
2023-01-21T04:31:46.200Z,0.20
2023-01-21T04:36:49.922Z,0.20
2023-01-21T04:41:54.962Z,0.20
2023-01-21T04:46:58.797Z,0.30
2023-01-21T04:52:02.525Z,0.20
2023-01-21T04:57:07.553Z,0.20
2023-01-21T05:02:11.226Z,0.20
2023-01-21T05:07:14.918Z,0.20
2023-01-21T05:12:19.984Z,0.20
2023-01-21T05:17:23.710Z,0.10
2023-01-21T05:22:27.471Z,0.10
2023-01-21T05:27:32.604Z,0.10
2023-01-21T05:32:36.727Z,0.10
2023-01-21T05:37:40.446Z,0.10
2023-01-21T05:42:46.910Z,0.10
2023-01-21T05:47:50.627Z,0.10
2023-01-21T05:52:54.307Z,0.00
2023-01-21T05:57:59.394Z,0.10
2023-01-21T06:03:03.567Z,0.00
2023-01-21T06:08:07.324Z,0.00
2023-01-21T06:13:14.376Z,0.00
2023-01-21T06:18:18.043Z,0.00
2023-01-21T06:23:21.691Z,0.00
2023-01-21T06:28:26.854Z,-0.10
2023-01-21T06:33:30.532Z,-0.10
2023-01-21T06:38:36.108Z,-0.10
2023-01-21T06:43:41.405Z,0.00
2023-01-21T06:48:45.073Z,0.00
2023-01-21T06:53:48.865Z,-0.10
2023-01-21T06:58:53.964Z,-0.10
2023-01-21T07:03:57.740Z,-0.10
2023-01-21T07:09:01.451Z,-0.10
2023-01-21T07:14:06.578Z,-0.20
2023-01-21T07:19:10.414Z,-0.10
2023-01-21T07:24:14.097Z,-0.10
2023-01-21T07:29:19.385Z,-0.20
2023-01-21T07:34:23.121Z,-0.20
2023-01-21T07:39:26.982Z,-0.20
2023-01-21T07:44:32.095Z,-0.30
2023-01-21T07:49:35.819Z,-0.20
2023-01-21T07:54:39.612Z,-0.20
2023-01-21T07:59:44.696Z,-0.30
2023-01-21T08:04:48.422Z,-0.20
2023-01-21T08:09:52.200Z,-0.20
2023-01-21T08:14:57.221Z,-0.20
2023-01-21T08:20:00.983Z,-0.20
2023-01-21T08:25:05.358Z,-0.10
2023-01-21T08:30:12.003Z,-0.10
2023-01-21T08:35:16.130Z,0.00
2023-01-21T08:40:20.023Z,0.00
2023-01-21T08:45:25.234Z,0.10
2023-01-21T08:50:29.051Z,0.10
2023-01-21T08:55:32.805Z,0.20
2023-01-21T09:00:37.912Z,0.30
2023-01-21T09:05:41.605Z,0.30
2023-01-21T09:11:03.811Z,0.40
2023-01-21T09:16:11.615Z,0.50
2023-01-21T09:21:16.494Z,0.60
2023-01-21T09:26:22.264Z,0.70
2023-01-21T09:31:28.699Z,0.70
2023-01-21T09:36:34.312Z,0.70
2023-01-21T09:41:39.867Z,0.80
2023-01-21T09:46:50.444Z,0.80
2023-01-21T09:52:01.999Z,0.80
2023-01-21T09:57:37.494Z,0.90
2023-01-21T10:02:49.291Z,0.90
2023-01-21T10:08:03.088Z,0.90
2023-01-21T10:13:19.675Z,1.00
2023-01-21T10:18:30.959Z,1.00
2023-01-21T10:23:42.699Z,1.00
2023-01-21T10:28:51.732Z,1.00
2023-01-21T10:33:57.293Z,1.00
2023-01-21T10:39:09.071Z,1.10
2023-01-21T10:44:23.066Z,1.00
2023-01-21T10:49:38.574Z,1.10
2023-01-21T10:54:51.391Z,1.10
2023-01-21T10:59:57.736Z,1.20
2023-01-21T11:05:05.665Z,1.30
2023-01-21T11:10:10.706Z,1.30
2023-01-21T11:15:16.971Z,1.40
2023-01-21T11:20:33.973Z,1.40
2023-01-21T11:25:41.040Z,1.60
2023-01-21T11:30:51.166Z,1.70
2023-01-21T11:35:58.376Z,1.80
2023-01-21T11:41:09.271Z,2.00
2023-01-21T11:46:35.262Z,2.20
2023-01-21T11:51:42.617Z,2.50
2023-01-21T11:56:56.072Z,2.70
2023-01-21T12:02:06.730Z,2.80
2023-01-21T12:07:20.793Z,2.90
2023-01-21T12:12:41.462Z,2.90
2023-01-21T12:17:54.153Z,2.90
2023-01-21T12:23:15.455Z,2.90
2023-01-21T12:28:34.693Z,2.80
2023-01-21T12:33:47.839Z,2.80
2023-01-21T12:38:58.625Z,2.80
2023-01-21T12:44:23.422Z,2.80
2023-01-21T12:49:35.179Z,2.80
2023-01-21T12:54:47.428Z,2.80
2023-01-21T12:59:56.689Z,2.70
2023-01-21T13:05:05.565Z,2.70
2023-01-21T13:10:18.482Z,2.70
2023-01-21T13:15:26.691Z,2.70
2023-01-21T13:20:31.521Z,2.70
2023-01-21T13:25:44.194Z,2.70
2023-01-21T13:30:53.595Z,2.70
2023-01-21T13:36:09.520Z,2.80
2023-01-21T13:41:27.467Z,2.70
2023-01-21T13:46:47.845Z,2.80
2023-01-21T13:52:02.779Z,2.80
2023-01-21T13:57:26.977Z,2.80
2023-01-21T14:02:37.111Z,2.80
2023-01-21T14:07:44.909Z,2.80
2023-01-21T14:13:05.116Z,2.80
2023-01-21T14:18:22.121Z,2.80
2023-01-21T14:23:51.363Z,2.80
2023-01-21T14:29:06.494Z,2.80
2023-01-21T14:34:17.215Z,2.80
2023-01-21T14:39:33.635Z,2.80
2023-01-21T14:44:44.484Z,2.80
2023-01-21T14:49:50.201Z,2.80
2023-01-21T14:54:54.069Z,2.80
2023-01-21T15:00:14.675Z,2.80
2023-01-21T15:05:23.883Z,2.80
2023-01-21T15:10:33.169Z,2.80
2023-01-21T15:16:03.383Z,2.80
2023-01-21T15:21:34.228Z,2.80
2023-01-21T15:26:42.274Z,2.70
2023-01-21T15:31:47.605Z,2.70
2023-01-21T15:36:58.003Z,2.60
2023-01-21T15:42:13.437Z,2.50
2023-01-21T15:47:38.099Z,2.40
2023-01-21T15:52:57.919Z,2.20
2023-01-21T15:58:15.976Z,2.10
2023-01-21T16:03:26.348Z,2.10
2023-01-21T16:09:02.831Z,2.10
2023-01-21T16:14:13.950Z,2.00
2023-01-21T16:19:22.212Z,1.90
2023-01-21T16:24:29.409Z,1.90
2023-01-21T16:29:39.666Z,1.90
2023-01-21T16:34:45.204Z,1.90
2023-01-21T16:39:49.199Z,1.90
2023-01-21T16:44:53.666Z,1.90
2023-01-21T16:49:58.802Z,1.80
2023-01-21T16:55:02.446Z,1.80
2023-01-21T17:00:23.433Z,1.80
2023-01-21T17:05:32.355Z,1.80
2023-01-21T17:10:39.517Z,1.80
2023-01-21T17:15:44.989Z,1.80
2023-01-21T17:20:52.548Z,1.80
2023-01-21T17:26:03.415Z,1.80
2023-01-21T17:31:23.144Z,1.80
2023-01-21T17:36:34.049Z,1.80
2023-01-21T17:41:41.233Z,1.80
2023-01-21T17:46:46.334Z,1.80
2023-01-21T17:51:53.449Z,1.80
2023-01-21T17:56:59.659Z,1.70
2023-01-21T18:02:04.503Z,1.70
2023-01-21T18:07:22.296Z,1.60
2023-01-21T18:12:26.065Z,1.60
2023-01-21T18:17:29.805Z,1.60
2023-01-21T18:22:36.083Z,1.60
2023-01-21T18:27:39.929Z,1.50
2023-01-21T18:32:43.783Z,1.50
2023-01-21T18:37:48.871Z,1.50
2023-01-21T18:42:55.526Z,1.50
2023-01-21T18:47:59.623Z,1.50
2023-01-21T18:53:06.144Z,1.50
2023-01-21T18:58:14.205Z,1.40
2023-01-21T19:03:18.391Z,1.40
2023-01-21T19:08:27.671Z,1.50
2023-01-21T19:13:31.392Z,1.40
2023-01-21T19:18:36.235Z,1.40
2023-01-21T19:23:41.263Z,1.40
2023-01-21T19:28:44.941Z,1.40
2023-01-21T19:33:48.705Z,1.30
2023-01-21T19:38:56.275Z,1.30
2023-01-21T19:43:59.982Z,1.30
2023-01-21T19:49:13.354Z,1.30
2023-01-21T19:54:18.495Z,1.30
2023-01-21T19:59:22.187Z,1.30
2023-01-21T20:04:25.893Z,1.30
2023-01-21T20:09:31.798Z,1.40
2023-01-21T20:14:35.689Z,1.30
2023-01-21T20:19:39.359Z,1.30
2023-01-21T20:24:44.619Z,1.30
2023-01-21T20:30:02.700Z,1.20
2023-01-21T20:35:12.157Z,1.20
2023-01-21T20:40:20.207Z,1.20
2023-01-21T20:45:28.087Z,1.20
2023-01-21T20:50:35.428Z,1.20
2023-01-21T20:55:40.947Z,1.10
2023-01-21T21:00:45.940Z,1.10
2023-01-21T21:05:50.721Z,1.20
2023-01-21T21:10:55.796Z,1.10
2023-01-21T21:15:59.587Z,1.20
2023-01-21T21:21:03.279Z,1.20
2023-01-21T21:26:16.996Z,1.10
2023-01-21T21:31:20.982Z,1.10
2023-01-21T21:36:25.138Z,1.10
2023-01-21T21:41:47.533Z,1.10
2023-01-21T21:47:23.066Z,1.00
2023-01-21T21:52:26.863Z,1.00
2023-01-21T21:57:33.499Z,1.00
2023-01-21T22:02:37.306Z,1.00
2023-01-21T22:07:41.069Z,0.90
2023-01-21T22:12:46.141Z,0.90
2023-01-21T22:17:49.886Z,0.80
2023-01-21T22:22:53.576Z,0.80
2023-01-21T22:27:58.839Z,0.80
2023-01-21T22:33:02.647Z,0.80
2023-01-21T22:38:06.630Z,0.80
2023-01-21T22:43:12.175Z,0.80
2023-01-21T22:48:16.183Z,0.80
2023-01-21T22:53:19.902Z,0.80
2023-01-21T22:58:25.395Z,0.80
2023-01-21T23:03:29.376Z,0.80
2023-01-21T23:08:33.472Z,0.80
2023-01-21T23:13:38.530Z,0.80
2023-01-21T23:18:42.232Z,0.80
2023-01-21T23:23:46.196Z,0.80
2023-01-21T23:28:55.121Z,0.70
2023-01-21T23:33:58.848Z,0.70
2023-01-21T23:39:02.503Z,0.70
2023-01-21T23:44:09.868Z,0.70
2023-01-21T23:49:15.177Z,0.70
2023-01-21T23:54:19.777Z,0.60
2023-01-21T23:59:25.052Z,0.50
